sensor_id;sensor_type;location;lat;lon;timestamp;temperature;humidity
37518;DHT22;23366;52.498;13.446;2023-07-31T00:01:04;17.10;99.90
37518;DHT22;23366;52.498;13.446;2023-07-31T00:03:29;17.00;99.90
37518;DHT22;23366;52.498;13.446;2023-07-31T00:05:55;17.00;99.90
37518;DHT22;23366;52.498;13.446;2023-07-31T00:08:20;17.00;99.90
37518;DHT22;23366;52.498;13.446;2023-07-31T00:10:46;17.00;99.90
37518;DHT22;23366;52.498;13.446;2023-07-31T00:13:11;17.00;99.90
37518;DHT22;23366;52.498;13.446;2023-07-31T00:15:36;16.90;99.90
37518;DHT22;23366;52.498;13.446;2023-07-31T00:18:02;16.90;99.90
37518;DHT22;23366;52.498;13.446;2023-07-31T00:20:28;16.80;99.90
37518;DHT22;23366;52.498;13.446;2023-07-31T00:22:53;16.80;99.90
37518;DHT22;23366;52.498;13.446;2023-07-31T00:25:18;16.80;99.90
37518;DHT22;23366;52.498;13.446;2023-07-31T00:27:44;16.80;99.90
37518;DHT22;23366;52.498;13.446;2023-07-31T00:30:11;16.80;99.90
37518;DHT22;23366;52.498;13.446;2023-07-31T00:32:37;16.80;99.90
37518;DHT22;23366;52.498;13.446;2023-07-31T00:35:02;16.80;99.90
37518;DHT22;23366;52.498;13.446;2023-07-31T00:37:29;16.80;99.90
37518;DHT22;23366;52.498;13.446;2023-07-31T00:39:55;16.80;99.90
37518;DHT22;23366;52.498;13.446;2023-07-31T00:42:20;16.90;99.90
37518;DHT22;23366;52.498;13.446;2023-07-31T00:44:45;16.90;99.90
37518;DHT22;23366;52.498;13.446;2023-07-31T00:47:11;16.90;99.90
37518;DHT22;23366;52.498;13.446;2023-07-31T00:49:37;16.90;99.90
37518;DHT22;23366;52.498;13.446;2023-07-31T00:52:03;16.90;99.90
37518;DHT22;23366;52.498;13.446;2023-07-31T00:54:28;16.90;99.90
37518;DHT22;23366;52.498;13.446;2023-07-31T00:56:54;16.90;99.90
37518;DHT22;23366;52.498;13.446;2023-07-31T00:59:20;16.90;99.90
37518;DHT22;23366;52.498;13.446;2023-07-31T01:01:45;16.90;99.90
37518;DHT22;23366;52.498;13.446;2023-07-31T01:04:11;17.00;99.90
37518;DHT22;23366;52.498;13.446;2023-07-31T01:06:59;17.00;99.90
37518;DHT22;23366;52.498;13.446;2023-07-31T01:09:47;17.00;99.90
37518;DHT22;23366;52.498;13.446;2023-07-31T01:12:16;17.10;99.90
37518;DHT22;23366;52.498;13.446;2023-07-31T01:15:03;17.10;99.90
37518;DHT22;23366;52.498;13.446;2023-07-31T01:17:28;17.10;99.90
37518;DHT22;23366;52.498;13.446;2023-07-31T01:19:56;17.20;99.90
37518;DHT22;23366;52.498;13.446;2023-07-31T01:22:39;17.20;99.90
37518;DHT22;23366;52.498;13.446;2023-07-31T01:25:43;17.20;99.90
37518;DHT22;23366;52.498;13.446;2023-07-31T01:28:13;17.10;99.90
37518;DHT22;23366;52.498;13.446;2023-07-31T01:30:45;17.10;99.90
37518;DHT22;23366;52.498;13.446;2023-07-31T01:33:13;17.10;99.90
37518;DHT22;23366;52.498;13.446;2023-07-31T01:35:43;17.00;99.90
37518;DHT22;23366;52.498;13.446;2023-07-31T01:38:08;17.00;99.90
37518;DHT22;23366;52.498;13.446;2023-07-31T01:40:34;16.90;99.90
37518;DHT22;23366;52.498;13.446;2023-07-31T01:42:59;16.90;99.90
37518;DHT22;23366;52.498;13.446;2023-07-31T01:45:25;16.80;99.90
37518;DHT22;23366;52.498;13.446;2023-07-31T01:47:51;16.80;99.90
37518;DHT22;23366;52.498;13.446;2023-07-31T01:50:16;16.80;99.90
37518;DHT22;23366;52.498;13.446;2023-07-31T01:52:41;16.80;99.90
37518;DHT22;23366;52.498;13.446;2023-07-31T01:55:07;16.70;99.90
37518;DHT22;23366;52.498;13.446;2023-07-31T01:57:32;16.80;99.90
37518;DHT22;23366;52.498;13.446;2023-07-31T01:59:58;16.80;99.90
37518;DHT22;23366;52.498;13.446;2023-07-31T02:02:24;16.80;99.90
37518;DHT22;23366;52.498;13.446;2023-07-31T02:04:50;16.80;99.90
37518;DHT22;23366;52.498;13.446;2023-07-31T02:07:15;16.80;99.90
37518;DHT22;23366;52.498;13.446;2023-07-31T02:09:41;16.80;99.90
37518;DHT22;23366;52.498;13.446;2023-07-31T02:12:06;16.80;99.90
37518;DHT22;23366;52.498;13.446;2023-07-31T02:14:34;16.80;99.90
37518;DHT22;23366;52.498;13.446;2023-07-31T02:16:59;16.90;99.90
37518;DHT22;23366;52.498;13.446;2023-07-31T02:19:25;16.90;99.90
37518;DHT22;23366;52.498;13.446;2023-07-31T02:21:50;16.90;99.90
37518;DHT22;23366;52.498;13.446;2023-07-31T02:24:15;16.90;99.90
37518;DHT22;23366;52.498;13.446;2023-07-31T02:26:41;16.90;99.90
37518;DHT22;23366;52.498;13.446;2023-07-31T02:29:08;16.80;99.90
37518;DHT22;23366;52.498;13.446;2023-07-31T02:31:33;16.90;99.90
37518;DHT22;23366;52.498;13.446;2023-07-31T02:33:59;16.90;99.90
37518;DHT22;23366;52.498;13.446;2023-07-31T02:36:24;16.90;99.90
37518;DHT22;23366;52.498;13.446;2023-07-31T02:38:50;16.80;99.90
37518;DHT22;23366;52.498;13.446;2023-07-31T02:41:15;16.90;99.90
37518;DHT22;23366;52.498;13.446;2023-07-31T02:43:40;16.80;99.90
37518;DHT22;23366;52.498;13.446;2023-07-31T02:46:06;16.80;99.90
37518;DHT22;23366;52.498;13.446;2023-07-31T02:48:32;16.80;99.90
37518;DHT22;23366;52.498;13.446;2023-07-31T02:50:57;16.80;99.90
37518;DHT22;23366;52.498;13.446;2023-07-31T02:53:22;16.80;99.90
37518;DHT22;23366;52.498;13.446;2023-07-31T02:55:48;16.80;99.90
37518;DHT22;23366;52.498;13.446;2023-07-31T02:58:13;16.70;99.90
37518;DHT22;23366;52.498;13.446;2023-07-31T03:00:43;16.70;99.90
37518;DHT22;23366;52.498;13.446;2023-07-31T03:03:08;16.70;99.90
37518;DHT22;23366;52.498;13.446;2023-07-31T03:05:34;16.70;99.90
37518;DHT22;23366;52.498;13.446;2023-07-31T03:07:59;16.60;99.90
37518;DHT22;23366;52.498;13.446;2023-07-31T03:10:25;16.60;99.90
37518;DHT22;23366;52.498;13.446;2023-07-31T03:12:50;16.60;99.90
37518;DHT22;23366;52.498;13.446;2023-07-31T03:15:16;16.60;99.90
37518;DHT22;23366;52.498;13.446;2023-07-31T03:17:41;16.60;99.90
37518;DHT22;23366;52.498;13.446;2023-07-31T03:20:07;16.60;99.90
37518;DHT22;23366;52.498;13.446;2023-07-31T03:22:33;16.50;99.90
37518;DHT22;23366;52.498;13.446;2023-07-31T03:25:01;16.50;99.90
37518;DHT22;23366;52.498;13.446;2023-07-31T03:27:26;16.50;99.90
37518;DHT22;23366;52.498;13.446;2023-07-31T03:29:51;16.40;99.90
37518;DHT22;23366;52.498;13.446;2023-07-31T03:32:17;16.40;99.90
37518;DHT22;23366;52.498;13.446;2023-07-31T03:34:42;16.40;99.90
37518;DHT22;23366;52.498;13.446;2023-07-31T03:37:08;16.40;99.90
37518;DHT22;23366;52.498;13.446;2023-07-31T03:39:34;16.40;99.90
37518;DHT22;23366;52.498;13.446;2023-07-31T03:42:00;16.40;99.90
37518;DHT22;23366;52.498;13.446;2023-07-31T03:44:25;16.40;99.90
37518;DHT22;23366;52.498;13.446;2023-07-31T03:46:51;16.40;99.90
37518;DHT22;23366;52.498;13.446;2023-07-31T03:49:16;16.40;99.90
37518;DHT22;23366;52.498;13.446;2023-07-31T03:51:42;16.40;99.90
37518;DHT22;23366;52.498;13.446;2023-07-31T03:54:08;16.40;99.90
37518;DHT22;23366;52.498;13.446;2023-07-31T03:56:33;16.40;99.90
37518;DHT22;23366;52.498;13.446;2023-07-31T03:58:59;16.40;99.90
37518;DHT22;23366;52.498;13.446;2023-07-31T04:01:24;16.40;99.90
37518;DHT22;23366;52.498;13.446;2023-07-31T04:03:50;16.40;99.90
37518;DHT22;23366;52.498;13.446;2023-07-31T04:06:15;16.40;99.90
37518;DHT22;23366;52.498;13.446;2023-07-31T04:08:46;16.40;99.90
37518;DHT22;23366;52.498;13.446;2023-07-31T04:11:11;16.50;99.90
37518;DHT22;23366;52.498;13.446;2023-07-31T04:13:38;16.40;99.90
37518;DHT22;23366;52.498;13.446;2023-07-31T04:16:03;16.50;99.90
37518;DHT22;23366;52.498;13.446;2023-07-31T04:18:29;16.50;99.90
37518;DHT22;23366;52.498;13.446;2023-07-31T04:20:56;16.50;99.90
37518;DHT22;23366;52.498;13.446;2023-07-31T04:23:23;16.50;99.90
37518;DHT22;23366;52.498;13.446;2023-07-31T04:25:49;16.60;99.90
37518;DHT22;23366;52.498;13.446;2023-07-31T04:28:14;16.60;99.90
37518;DHT22;23366;52.498;13.446;2023-07-31T04:30:40;16.60;99.90
37518;DHT22;23366;52.498;13.446;2023-07-31T04:33:05;16.60;99.90
37518;DHT22;23366;52.498;13.446;2023-07-31T04:35:31;16.70;99.90
37518;DHT22;23366;52.498;13.446;2023-07-31T04:37:56;16.70;99.90
37518;DHT22;23366;52.498;13.446;2023-07-31T04:40:22;16.70;99.90
37518;DHT22;23366;52.498;13.446;2023-07-31T04:42:47;16.70;99.90
37518;DHT22;23366;52.498;13.446;2023-07-31T04:45:13;16.70;99.90
37518;DHT22;23366;52.498;13.446;2023-07-31T04:47:39;16.80;99.90
37518;DHT22;23366;52.498;13.446;2023-07-31T04:50:04;16.70;99.90
37518;DHT22;23366;52.498;13.446;2023-07-31T04:52:30;16.80;99.90
37518;DHT22;23366;52.498;13.446;2023-07-31T04:54:56;16.80;99.90
37518;DHT22;23366;52.498;13.446;2023-07-31T04:57:21;16.80;99.90
37518;DHT22;23366;52.498;13.446;2023-07-31T04:59:46;16.80;99.90
37518;DHT22;23366;52.498;13.446;2023-07-31T05:02:12;16.80;99.90
37518;DHT22;23366;52.498;13.446;2023-07-31T05:04:38;16.80;99.90
37518;DHT22;23366;52.498;13.446;2023-07-31T05:07:04;16.80;99.90
37518;DHT22;23366;52.498;13.446;2023-07-31T05:09:30;16.90;99.90
37518;DHT22;23366;52.498;13.446;2023-07-31T05:11:55;16.90;99.90
37518;DHT22;23366;52.498;13.446;2023-07-31T05:14:20;16.90;99.90
37518;DHT22;23366;52.498;13.446;2023-07-31T05:16:46;16.90;99.90
37518;DHT22;23366;52.498;13.446;2023-07-31T05:19:11;17.00;99.90
37518;DHT22;23366;52.498;13.446;2023-07-31T05:21:37;17.10;99.90
37518;DHT22;23366;52.498;13.446;2023-07-31T05:24:03;17.20;99.90
37518;DHT22;23366;52.498;13.446;2023-07-31T05:26:28;17.20;99.90
37518;DHT22;23366;52.498;13.446;2023-07-31T05:28:53;17.20;99.90
37518;DHT22;23366;52.498;13.446;2023-07-31T05:31:19;17.30;99.90
37518;DHT22;23366;52.498;13.446;2023-07-31T05:33:46;17.30;99.90
37518;DHT22;23366;52.498;13.446;2023-07-31T05:36:11;17.30;99.90
37518;DHT22;23366;52.498;13.446;2023-07-31T05:38:37;17.30;99.90
37518;DHT22;23366;52.498;13.446;2023-07-31T05:41:02;17.30;99.90
37518;DHT22;23366;52.498;13.446;2023-07-31T05:43:28;17.30;99.90
37518;DHT22;23366;52.498;13.446;2023-07-31T05:45:53;17.30;99.90
37518;DHT22;23366;52.498;13.446;2023-07-31T05:48:19;17.20;99.90
37518;DHT22;23366;52.498;13.446;2023-07-31T05:50:44;17.30;99.90
37518;DHT22;23366;52.498;13.446;2023-07-31T05:53:09;17.20;99.90
37518;DHT22;23366;52.498;13.446;2023-07-31T05:55:35;17.20;99.90
37518;DHT22;23366;52.498;13.446;2023-07-31T05:58:01;17.20;99.90
37518;DHT22;23366;52.498;13.446;2023-07-31T06:00:27;17.20;99.90
37518;DHT22;23366;52.498;13.446;2023-07-31T06:02:53;17.20;99.90
37518;DHT22;23366;52.498;13.446;2023-07-31T06:05:18;17.20;99.90
37518;DHT22;23366;52.498;13.446;2023-07-31T06:07:44;17.30;99.90
37518;DHT22;23366;52.498;13.446;2023-07-31T06:10:09;17.40;99.90
37518;DHT22;23366;52.498;13.446;2023-07-31T06:12:35;17.40;99.90
37518;DHT22;23366;52.498;13.446;2023-07-31T06:15:02;17.50;99.90
37518;DHT22;23366;52.498;13.446;2023-07-31T06:17:28;17.50;99.90
37518;DHT22;23366;52.498;13.446;2023-07-31T06:19:54;17.50;99.90
37518;DHT22;23366;52.498;13.446;2023-07-31T06:22:19;17.50;99.90
37518;DHT22;23366;52.498;13.446;2023-07-31T06:24:46;17.60;99.90
37518;DHT22;23366;52.498;13.446;2023-07-31T06:27:11;17.60;99.90
37518;DHT22;23366;52.498;13.446;2023-07-31T06:29:37;17.60;99.90
37518;DHT22;23366;52.498;13.446;2023-07-31T06:32:02;17.60;99.90
37518;DHT22;23366;52.498;13.446;2023-07-31T06:34:28;17.70;99.90
37518;DHT22;23366;52.498;13.446;2023-07-31T06:36:54;17.80;99.90
37518;DHT22;23366;52.498;13.446;2023-07-31T06:39:20;17.80;99.90
37518;DHT22;23366;52.498;13.446;2023-07-31T06:41:45;17.80;99.90
37518;DHT22;23366;52.498;13.446;2023-07-31T06:44:11;17.80;99.90
37518;DHT22;23366;52.498;13.446;2023-07-31T06:46:36;17.90;99.90
37518;DHT22;23366;52.498;13.446;2023-07-31T06:49:02;18.00;99.90
37518;DHT22;23366;52.498;13.446;2023-07-31T06:51:27;18.10;99.90
37518;DHT22;23366;52.498;13.446;2023-07-31T06:53:53;18.20;99.90
37518;DHT22;23366;52.498;13.446;2023-07-31T06:56:18;18.40;99.90
37518;DHT22;23366;52.498;13.446;2023-07-31T06:58:44;18.40;99.90
37518;DHT22;23366;52.498;13.446;2023-07-31T07:01:09;18.50;99.90
37518;DHT22;23366;52.498;13.446;2023-07-31T07:03:35;18.60;99.90
37518;DHT22;23366;52.498;13.446;2023-07-31T07:06:00;18.60;99.90
37518;DHT22;23366;52.498;13.446;2023-07-31T07:08:26;18.50;99.90
37518;DHT22;23366;52.498;13.446;2023-07-31T07:10:51;18.60;99.90
37518;DHT22;23366;52.498;13.446;2023-07-31T07:13:17;18.60;99.90
37518;DHT22;23366;52.498;13.446;2023-07-31T07:15:47;18.60;99.90
37518;DHT22;23366;52.498;13.446;2023-07-31T07:18:13;18.60;99.90
37518;DHT22;23366;52.498;13.446;2023-07-31T07:20:39;18.60;99.90
37518;DHT22;23366;52.498;13.446;2023-07-31T07:23:04;18.50;99.90
37518;DHT22;23366;52.498;13.446;2023-07-31T07:25:30;18.50;99.90
37518;DHT22;23366;52.498;13.446;2023-07-31T07:27:55;18.50;99.90
37518;DHT22;23366;52.498;13.446;2023-07-31T07:30:21;18.60;99.90
37518;DHT22;23366;52.498;13.446;2023-07-31T07:32:46;18.70;99.90
37518;DHT22;23366;52.498;13.446;2023-07-31T07:35:12;19.00;99.90
37518;DHT22;23366;52.498;13.446;2023-07-31T07:37:37;19.10;99.90
37518;DHT22;23366;52.498;13.446;2023-07-31T07:40:03;19.40;99.90
37518;DHT22;23366;52.498;13.446;2023-07-31T07:42:29;19.60;99.90
37518;DHT22;23366;52.498;13.446;2023-07-31T07:44:54;19.90;99.90
37518;DHT22;23366;52.498;13.446;2023-07-31T07:47:20;20.00;99.90
37518;DHT22;23366;52.498;13.446;2023-07-31T07:49:45;20.20;99.90
37518;DHT22;23366;52.498;13.446;2023-07-31T07:52:10;20.20;99.90
37518;DHT22;23366;52.498;13.446;2023-07-31T07:54:36;20.40;99.90
37518;DHT22;23366;52.498;13.446;2023-07-31T07:57:01;20.50;99.90
37518;DHT22;23366;52.498;13.446;2023-07-31T07:59:27;20.50;99.90
37518;DHT22;23366;52.498;13.446;2023-07-31T08:01:52;20.40;99.90
37518;DHT22;23366;52.498;13.446;2023-07-31T08:04:18;20.40;99.90
37518;DHT22;23366;52.498;13.446;2023-07-31T08:06:44;20.20;99.90
37518;DHT22;23366;52.498;13.446;2023-07-31T08:09:09;20.10;99.90
37518;DHT22;23366;52.498;13.446;2023-07-31T08:11:35;20.00;99.90
37518;DHT22;23366;52.498;13.446;2023-07-31T08:14:00;19.90;99.90
37518;DHT22;23366;52.498;13.446;2023-07-31T08:16:26;19.90;99.90
37518;DHT22;23366;52.498;13.446;2023-07-31T08:18:52;19.60;99.90
37518;DHT22;23366;52.498;13.446;2023-07-31T08:21:17;19.50;99.90
37518;DHT22;23366;52.498;13.446;2023-07-31T08:23:43;19.50;99.90
37518;DHT22;23366;52.498;13.446;2023-07-31T08:26:14;19.40;99.90
37518;DHT22;23366;52.498;13.446;2023-07-31T08:28:39;19.40;99.90
37518;DHT22;23366;52.498;13.446;2023-07-31T08:31:05;19.40;99.90
37518;DHT22;23366;52.498;13.446;2023-07-31T08:33:31;19.60;99.90
37518;DHT22;23366;52.498;13.446;2023-07-31T08:35:57;19.70;99.90
37518;DHT22;23366;52.498;13.446;2023-07-31T08:38:22;19.80;99.90
37518;DHT22;23366;52.498;13.446;2023-07-31T08:40:50;19.90;99.90
37518;DHT22;23366;52.498;13.446;2023-07-31T08:43:16;19.90;99.90
37518;DHT22;23366;52.498;13.446;2023-07-31T08:45:42;19.80;99.90
37518;DHT22;23366;52.498;13.446;2023-07-31T08:48:08;19.80;99.90
37518;DHT22;23366;52.498;13.446;2023-07-31T08:50:33;19.80;99.90
37518;DHT22;23366;52.498;13.446;2023-07-31T08:52:59;19.80;99.90
37518;DHT22;23366;52.498;13.446;2023-07-31T08:55:26;19.90;99.90
37518;DHT22;23366;52.498;13.446;2023-07-31T08:57:52;19.90;99.90
37518;DHT22;23366;52.498;13.446;2023-07-31T09:00:21;20.00;99.90
37518;DHT22;23366;52.498;13.446;2023-07-31T09:05:17;20.40;99.90
37518;DHT22;23366;52.498;13.446;2023-07-31T09:07:45;20.30;99.90
37518;DHT22;23366;52.498;13.446;2023-07-31T09:10:12;20.40;99.90
37518;DHT22;23366;52.498;13.446;2023-07-31T09:12:38;20.50;99.90
37518;DHT22;23366;52.498;13.446;2023-07-31T09:15:05;20.60;99.90
37518;DHT22;23366;52.498;13.446;2023-07-31T09:17:35;20.70;99.90
37518;DHT22;23366;52.498;13.446;2023-07-31T09:20:21;20.80;99.90
37518;DHT22;23366;52.498;13.446;2023-07-31T09:22:48;20.80;99.90
37518;DHT22;23366;52.498;13.446;2023-07-31T09:25:24;20.70;99.90
37518;DHT22;23366;52.498;13.446;2023-07-31T09:30:17;20.50;99.90
37518;DHT22;23366;52.498;13.446;2023-07-31T09:32:44;20.50;99.90
37518;DHT22;23366;52.498;13.446;2023-07-31T09:35:33;20.40;99.90
37518;DHT22;23366;52.498;13.446;2023-07-31T09:38:05;20.20;99.90
37518;DHT22;23366;52.498;13.446;2023-07-31T09:40:33;19.90;99.90
37518;DHT22;23366;52.498;13.446;2023-07-31T09:43:00;19.60;99.90
37518;DHT22;23366;52.498;13.446;2023-07-31T09:45:26;19.30;99.90
37518;DHT22;23366;52.498;13.446;2023-07-31T09:47:53;19.30;99.90
37518;DHT22;23366;52.498;13.446;2023-07-31T09:50:21;19.20;99.90
37518;DHT22;23366;52.498;13.446;2023-07-31T09:52:47;19.30;99.90
37518;DHT22;23366;52.498;13.446;2023-07-31T09:55:13;19.30;99.90
37518;DHT22;23366;52.498;13.446;2023-07-31T09:57:44;19.30;99.90
37518;DHT22;23366;52.498;13.446;2023-07-31T10:00:11;19.40;99.90
37518;DHT22;23366;52.498;13.446;2023-07-31T10:02:38;19.50;99.90
37518;DHT22;23366;52.498;13.446;2023-07-31T10:05:05;19.60;99.90
37518;DHT22;23366;52.498;13.446;2023-07-31T10:07:32;19.60;99.90
37518;DHT22;23366;52.498;13.446;2023-07-31T10:10:00;19.80;99.90
37518;DHT22;23366;52.498;13.446;2023-07-31T10:12:29;19.90;99.90
37518;DHT22;23366;52.498;13.446;2023-07-31T10:14:55;20.00;99.90
37518;DHT22;23366;52.498;13.446;2023-07-31T10:17:22;20.20;99.90
37518;DHT22;23366;52.498;13.446;2023-07-31T10:19:49;20.50;99.90
37518;DHT22;23366;52.498;13.446;2023-07-31T10:22:16;20.70;99.90
37518;DHT22;23366;52.498;13.446;2023-07-31T10:24:42;20.70;99.90
37518;DHT22;23366;52.498;13.446;2023-07-31T10:27:08;20.60;99.90
37518;DHT22;23366;52.498;13.446;2023-07-31T10:29:36;20.60;99.90
37518;DHT22;23366;52.498;13.446;2023-07-31T10:32:02;20.50;99.90
37518;DHT22;23366;52.498;13.446;2023-07-31T10:34:33;20.30;99.90
37518;DHT22;23366;52.498;13.446;2023-07-31T10:45:10;20.60;99.90
37518;DHT22;23366;52.498;13.446;2023-07-31T10:47:46;20.80;99.90
37518;DHT22;23366;52.498;13.446;2023-07-31T10:50:13;21.10;99.90
37518;DHT22;23366;52.498;13.446;2023-07-31T10:52:39;21.50;99.90
37518;DHT22;23366;52.498;13.446;2023-07-31T10:57:52;22.60;99.90
37518;DHT22;23366;52.498;13.446;2023-07-31T11:00:26;23.00;99.90
37518;DHT22;23366;52.498;13.446;2023-07-31T11:03:00;23.20;99.90
37518;DHT22;23366;52.498;13.446;2023-07-31T11:05:46;23.20;99.90
37518;DHT22;23366;52.498;13.446;2023-07-31T11:10:47;23.50;99.90
37518;DHT22;23366;52.498;13.446;2023-07-31T11:13:13;23.60;99.90
37518;DHT22;23366;52.498;13.446;2023-07-31T11:15:39;23.60;99.90
37518;DHT22;23366;52.498;13.446;2023-07-31T11:18:05;23.60;99.90
37518;DHT22;23366;52.498;13.446;2023-07-31T11:20:32;23.50;99.90
37518;DHT22;23366;52.498;13.446;2023-07-31T11:23:02;23.40;99.90
37518;DHT22;23366;52.498;13.446;2023-07-31T11:25:29;23.40;99.90
37518;DHT22;23366;52.498;13.446;2023-07-31T11:27:55;23.40;99.90
37518;DHT22;23366;52.498;13.446;2023-07-31T11:30:21;23.40;99.90
37518;DHT22;23366;52.498;13.446;2023-07-31T11:32:47;23.40;99.90
37518;DHT22;23366;52.498;13.446;2023-07-31T11:35:12;23.50;99.90
37518;DHT22;23366;52.498;13.446;2023-07-31T11:37:39;23.40;99.90
37518;DHT22;23366;52.498;13.446;2023-07-31T11:40:06;23.40;99.90
37518;DHT22;23366;52.498;13.446;2023-07-31T11:42:31;23.40;99.90
37518;DHT22;23366;52.498;13.446;2023-07-31T11:44:57;23.60;99.90
37518;DHT22;23366;52.498;13.446;2023-07-31T11:47:22;23.60;99.90
37518;DHT22;23366;52.498;13.446;2023-07-31T11:49:50;23.50;99.90
37518;DHT22;23366;52.498;13.446;2023-07-31T11:52:17;23.30;99.90
37518;DHT22;23366;52.498;13.446;2023-07-31T11:54:46;23.20;99.90
37518;DHT22;23366;52.498;13.446;2023-07-31T11:57:11;23.10;99.90
37518;DHT22;23366;52.498;13.446;2023-07-31T11:59:38;23.10;99.90
37518;DHT22;23366;52.498;13.446;2023-07-31T12:02:04;22.90;99.90
37518;DHT22;23366;52.498;13.446;2023-07-31T12:04:30;22.80;99.90
37518;DHT22;23366;52.498;13.446;2023-07-31T12:06:55;22.70;99.90
37518;DHT22;23366;52.498;13.446;2023-07-31T12:09:21;22.50;99.90
37518;DHT22;23366;52.498;13.446;2023-07-31T12:11:47;22.40;99.90
37518;DHT22;23366;52.498;13.446;2023-07-31T12:14:24;22.20;99.90
37518;DHT22;23366;52.498;13.446;2023-07-31T12:16:54;22.10;99.90
37518;DHT22;23366;52.498;13.446;2023-07-31T12:19:21;22.20;99.90
37518;DHT22;23366;52.498;13.446;2023-07-31T12:21:46;22.30;99.90
37518;DHT22;23366;52.498;13.446;2023-07-31T12:24:12;22.40;99.90
37518;DHT22;23366;52.498;13.446;2023-07-31T12:26:37;22.50;99.90
37518;DHT22;23366;52.498;13.446;2023-07-31T12:29:07;22.50;99.90
37518;DHT22;23366;52.498;13.446;2023-07-31T12:31:33;22.70;99.90
37518;DHT22;23366;52.498;13.446;2023-07-31T12:33:59;22.80;99.90
37518;DHT22;23366;52.498;13.446;2023-07-31T12:36:25;22.80;99.90
37518;DHT22;23366;52.498;13.446;2023-07-31T12:38:51;22.90;99.90
37518;DHT22;23366;52.498;13.446;2023-07-31T12:41:17;23.10;99.90
37518;DHT22;23366;52.498;13.446;2023-07-31T12:43:44;23.40;99.90
37518;DHT22;23366;52.498;13.446;2023-07-31T12:46:10;23.50;99.90
37518;DHT22;23366;52.498;13.446;2023-07-31T12:48:37;23.60;99.90
37518;DHT22;23366;52.498;13.446;2023-07-31T12:51:02;23.60;99.90
37518;DHT22;23366;52.498;13.446;2023-07-31T12:53:28;23.50;99.90
37518;DHT22;23366;52.498;13.446;2023-07-31T12:55:55;23.50;99.90
37518;DHT22;23366;52.498;13.446;2023-07-31T12:58:20;23.40;99.90
37518;DHT22;23366;52.498;13.446;2023-07-31T13:00:46;23.40;99.90
37518;DHT22;23366;52.498;13.446;2023-07-31T13:03:11;23.40;99.90
37518;DHT22;23366;52.498;13.446;2023-07-31T13:05:37;23.30;99.90
37518;DHT22;23366;52.498;13.446;2023-07-31T13:08:02;23.30;99.90
37518;DHT22;23366;52.498;13.446;2023-07-31T13:10:28;23.20;99.90
37518;DHT22;23366;52.498;13.446;2023-07-31T13:12:55;23.00;99.90
37518;DHT22;23366;52.498;13.446;2023-07-31T13:15:20;22.90;99.90
37518;DHT22;23366;52.498;13.446;2023-07-31T13:17:46;22.80;99.90
37518;DHT22;23366;52.498;13.446;2023-07-31T13:20:11;22.80;99.90
37518;DHT22;23366;52.498;13.446;2023-07-31T13:22:37;22.80;99.90
37518;DHT22;23366;52.498;13.446;2023-07-31T13:25:03;22.60;99.90
37518;DHT22;23366;52.498;13.446;2023-07-31T13:27:28;22.60;99.90
37518;DHT22;23366;52.498;13.446;2023-07-31T13:29:55;22.60;99.90
37518;DHT22;23366;52.498;13.446;2023-07-31T13:32:21;22.50;99.90
37518;DHT22;23366;52.498;13.446;2023-07-31T13:34:47;22.40;99.90
37518;DHT22;23366;52.498;13.446;2023-07-31T13:37:13;22.30;99.90
37518;DHT22;23366;52.498;13.446;2023-07-31T13:39:39;22.30;99.90
37518;DHT22;23366;52.498;13.446;2023-07-31T13:42:06;22.50;99.90
37518;DHT22;23366;52.498;13.446;2023-07-31T13:44:33;22.80;99.90
37518;DHT22;23366;52.498;13.446;2023-07-31T13:46:59;23.00;99.90
37518;DHT22;23366;52.498;13.446;2023-07-31T13:49:25;23.20;99.90
37518;DHT22;23366;52.498;13.446;2023-07-31T13:51:51;23.30;99.90
37518;DHT22;23366;52.498;13.446;2023-07-31T13:54:16;23.40;99.90
37518;DHT22;23366;52.498;13.446;2023-07-31T13:56:42;23.40;99.90
37518;DHT22;23366;52.498;13.446;2023-07-31T13:59:08;23.50;99.90
37518;DHT22;23366;52.498;13.446;2023-07-31T14:01:34;23.50;99.90
37518;DHT22;23366;52.498;13.446;2023-07-31T14:03:59;23.60;99.90
37518;DHT22;23366;52.498;13.446;2023-07-31T14:06:24;23.50;99.90
37518;DHT22;23366;52.498;13.446;2023-07-31T14:08:50;23.40;99.90
37518;DHT22;23366;52.498;13.446;2023-07-31T14:11:15;23.50;99.90
37518;DHT22;23366;52.498;13.446;2023-07-31T14:13:41;23.50;99.90
37518;DHT22;23366;52.498;13.446;2023-07-31T14:16:06;23.40;99.90
37518;DHT22;23366;52.498;13.446;2023-07-31T14:18:32;23.40;99.90
37518;DHT22;23366;52.498;13.446;2023-07-31T14:20:57;23.40;99.90
37518;DHT22;23366;52.498;13.446;2023-07-31T14:23:23;23.40;99.90
37518;DHT22;23366;52.498;13.446;2023-07-31T14:25:48;23.30;99.90
37518;DHT22;23366;52.498;13.446;2023-07-31T14:28:14;23.30;99.90
37518;DHT22;23366;52.498;13.446;2023-07-31T14:30:39;23.20;99.90
37518;DHT22;23366;52.498;13.446;2023-07-31T14:33:05;23.00;99.90
37518;DHT22;23366;52.498;13.446;2023-07-31T14:35:30;22.90;99.90
37518;DHT22;23366;52.498;13.446;2023-07-31T14:37:56;22.70;99.90
37518;DHT22;23366;52.498;13.446;2023-07-31T14:40:21;22.70;99.90
37518;DHT22;23366;52.498;13.446;2023-07-31T14:42:47;22.70;99.90
37518;DHT22;23366;52.498;13.446;2023-07-31T14:45:12;22.90;99.90
37518;DHT22;23366;52.498;13.446;2023-07-31T14:47:37;22.90;99.90
37518;DHT22;23366;52.498;13.446;2023-07-31T14:50:03;23.00;99.90
37518;DHT22;23366;52.498;13.446;2023-07-31T14:52:29;22.90;99.90
37518;DHT22;23366;52.498;13.446;2023-07-31T14:54:55;22.90;99.90
37518;DHT22;23366;52.498;13.446;2023-07-31T14:57:20;23.00;99.90
37518;DHT22;23366;52.498;13.446;2023-07-31T14:59:47;23.00;99.90
37518;DHT22;23366;52.498;13.446;2023-07-31T15:02:14;23.00;99.90
37518;DHT22;23366;52.498;13.446;2023-07-31T15:04:39;22.80;99.90
37518;DHT22;23366;52.498;13.446;2023-07-31T15:07:05;22.60;99.90
37518;DHT22;23366;52.498;13.446;2023-07-31T15:09:31;22.50;99.90
37518;DHT22;23366;52.498;13.446;2023-07-31T15:11:56;22.50;99.90
37518;DHT22;23366;52.498;13.446;2023-07-31T15:14:23;22.40;99.90
37518;DHT22;23366;52.498;13.446;2023-07-31T15:16:49;22.20;99.90
37518;DHT22;23366;52.498;13.446;2023-07-31T15:19:15;22.10;99.90
37518;DHT22;23366;52.498;13.446;2023-07-31T15:21:41;22.00;99.90
37518;DHT22;23366;52.498;13.446;2023-07-31T15:24:06;22.00;99.90
37518;DHT22;23366;52.498;13.446;2023-07-31T15:26:32;21.90;99.90
37518;DHT22;23366;52.498;13.446;2023-07-31T15:29:02;21.80;99.90